Terminal Aerodrome Forecast
Issued by NWS

Current Version | Previous Version | Graphics & Text | Print | Product List | Glossary On
Versions: 1 2 3 4 5 6 7 8 9 10 11 12 13 14 15 16 17 18 19 20 21 22 23 24 25 26 27 28
000
FTUS41 KILN 201700
TAFLUK
TAF
KLUK 201734Z 2018/2118 21012G20KT P6SM BKN030 OVC250
     FM202300 22010KT P6SM FEW050 BKN250
     FM210800 22012KT P6SM VCSH BKN040
     FM211000 23010KT P6SM VCSH BKN025
     FM211500 26014G24KT P6SM BKN040=

USA.gov is the U.S. government's official web portal to all federal, state and local government web resources and services.